Time;durP1;ratioP1;P1;durP2;ratioP2;P2;SDS_P1;SDS_P2;PMS_P1;PMS_P2;Temp;Humidity;BMP_temperature;BMP_pressure;BME280_temperature;BME280_humidity;BME280_pressure;Samples;Min_cycle;Max_cycle;Signal;HPM_P1;HPM_P2
2021/06/08 00:01:14;;;;;;;13.57;7.10;;;;;;;14.69;72.72;94014.53;5090121;28;20161;-82
2021/06/08 00:03:40;;;;;;;10.15;7.22;;;;;;;14.62;72.65;94007.03;5105319;28;20027;-81
2021/06/08 00:06:05;;;;;;;11.05;7.47;;;;;;;14.56;72.90;94005.69;5098762;28;20118;-82
2021/06/08 00:08:31;;;;;;;12.85;7.82;;;;;;;14.54;72.78;94006.00;5105562;28;20125;-82
2021/06/08 00:10:56;;;;;;;9.57;7.93;;;;;;;14.51;72.95;94011.22;5093020;28;20043;-82
2021/06/08 00:13:21;;;;;;;13.55;8.45;;;;;;;14.48;73.11;94001.97;5105758;28;20102;-82
2021/06/08 00:15:47;;;;;;;8.73;6.75;;;;;;;14.43;73.02;94000.28;5102706;28;20028;-81
2021/06/08 00:18:12;;;;;;;13.90;8.48;;;;;;;14.46;73.16;93998.81;5109491;28;20034;-82
2021/06/08 00:20:38;;;;;;;8.20;6.72;;;;;;;14.49;72.77;93997.38;5126158;27;20031;-82
2021/06/08 00:23:03;;;;;;;10.32;7.90;;;;;;;14.50;72.62;93989.00;5108838;28;20082;-81
2021/06/08 00:25:29;;;;;;;13.82;7.75;;;;;;;14.41;72.78;93991.00;5109899;28;20028;-81
2021/06/08 00:27:56;;;;;;;10.32;7.70;;;;;;;14.36;73.05;93981.28;5091262;28;20032;-81
2021/06/08 00:30:23;;;;;;;9.30;8.13;;;;;;;14.34;73.11;93980.03;5105739;28;20027;-81
2021/06/08 00:32:48;;;;;;;12.27;8.68;;;;;;;14.32;73.01;93983.06;5092471;28;20027;-81
2021/06/08 00:35:14;;;;;;;11.15;8.38;;;;;;;14.33;73.09;93973.09;5089191;28;20503;-81
2021/06/08 00:37:39;;;;;;;10.23;8.30;;;;;;;14.31;73.18;93980.69;5089314;28;20035;-81
2021/06/08 00:40:06;;;;;;;14.30;8.25;;;;;;;14.23;73.13;93975.13;5090294;28;20027;-81
2021/06/08 00:42:34;;;;;;;12.55;8.75;;;;;;;14.22;73.09;93976.22;5090561;28;20035;-81
2021/06/08 00:45:00;;;;;;;11.38;7.50;;;;;;;14.18;73.10;93971.84;5088997;28;20035;-81
2021/06/08 00:47:25;;;;;;;20.17;8.30;;;;;;;14.15;73.19;93962.59;5099790;28;20027;-81
2021/06/08 00:49:52;;;;;;;9.35;7.97;;;;;;;14.16;73.32;93966.81;5091019;28;20032;-82
2021/06/08 00:52:17;;;;;;;10.00;7.68;;;;;;;14.10;73.35;93965.47;5101181;28;20027;-82
2021/06/08 00:54:43;;;;;;;9.98;7.20;;;;;;;14.02;73.52;93963.66;5107850;28;20439;-82
2021/06/08 00:57:08;;;;;;;12.10;7.95;;;;;;;14.04;73.47;93964.13;5091932;28;20028;-81
2021/06/08 00:59:34;;;;;;;12.18;8.10;;;;;;;14.05;73.36;93968.38;5109161;28;20037;-82
2021/06/08 01:01:59;;;;;;;10.55;7.88;;;;;;;14.05;73.36;93949.63;5093439;28;20117;-81
2021/06/08 01:04:25;;;;;;;13.88;8.45;;;;;;;13.99;73.34;93953.63;5097068;28;20188;-81
2021/06/08 01:06:50;;;;;;;10.27;8.35;;;;;;;13.97;73.45;93939.78;5100157;28;20535;-82
2021/06/08 01:09:16;;;;;;;13.38;8.65;;;;;;;13.97;73.30;93945.16;5097213;28;20089;-82
2021/06/08 01:11:42;;;;;;;11.75;8.32;;;;;;;13.98;73.44;93952.06;5092864;28;20521;-83
2021/06/08 01:14:08;;;;;;;11.18;7.72;;;;;;;13.96;73.20;93943.56;5097385;28;20136;-82
2021/06/08 01:16:33;;;;;;;10.73;8.50;;;;;;;13.90;73.21;93939.53;5107814;28;20118;-82
2021/06/08 01:19:00;;;;;;;11.32;7.75;;;;;;;13.87;73.49;93942.88;5101436;28;20092;-82
2021/06/08 01:21:27;;;;;;;11.20;8.15;;;;;;;13.87;73.42;93951.69;5100245;28;20023;-81
2021/06/08 01:23:53;;;;;;;13.88;8.73;;;;;;;13.88;73.17;93952.47;5096993;28;20028;-82
2021/06/08 01:26:26;;;;;;;15.82;8.68;;;;;;;13.91;73.64;93949.16;5095563;28;20032;-80
2021/06/08 01:28:52;;;;;;;10.88;8.50;;;;;;;13.91;73.69;93941.09;5089095;28;20028;-81
2021/06/08 01:31:21;;;;;;;11.35;9.25;;;;;;;13.87;73.71;93949.03;5097599;28;20035;-80
2021/06/08 01:33:47;;;;;;;11.52;9.13;;;;;;;13.84;74.01;93950.47;5091784;28;20123;-81
2021/06/08 01:36:16;;;;;;;12.02;9.65;;;;;;;13.82;74.43;93944.66;5095709;28;20114;-81
2021/06/08 01:38:43;;;;;;;14.88;10.85;;;;;;;13.85;74.54;93952.03;5089847;28;20024;-81
2021/06/08 01:41:10;;;;;;;12.52;9.25;;;;;;;13.83;74.70;93951.56;5101778;28;20028;-81
2021/06/08 01:43:36;;;;;;;15.23;9.95;;;;;;;13.88;74.79;93953.28;5095721;28;20118;-80
2021/06/08 01:46:02;;;;;;;12.98;9.45;;;;;;;13.92;74.55;93945.34;5101788;28;20106;-80
2021/06/08 01:48:27;;;;;;;12.90;10.15;;;;;;;13.98;74.54;93954.72;5100428;28;20028;-80
2021/06/08 01:51:00;;;;;;;18.17;10.05;;;;;;;14.01;74.71;93959.44;5097462;28;20031;-80
2021/06/08 01:53:46;;;;;;;15.30;9.98;;;;;;;14.03;74.80;93952.63;5093498;28;20400;-80
2021/06/08 01:56:16;;;;;;;11.02;8.77;;;;;;;14.10;75.01;93943.25;5088284;28;20034;-81
2021/06/08 01:58:49;;;;;;;14.95;11.52;;;;;;;14.15;75.16;93941.16;5097959;28;20088;-80
2021/06/08 02:01:49;;;;;;;26.55;17.15;;;;;;;14.18;75.62;93934.34;5089751;28;20043;-81
2021/06/08 02:04:45;;;;;;;25.10;17.33;;;;;;;14.21;76.26;93947.84;5101052;27;20514;-80
2021/06/08 02:07:36;;;;;;;22.35;16.63;;;;;;;14.24;76.50;93947.19;5086710;28;20058;-80
2021/06/08 02:10:30;;;;;;;32.83;18.75;;;;;;;14.25;76.64;93947.97;5086630;28;20106;-81
2021/06/08 02:13:23;;;;;;;24.70;17.17;;;;;;;14.25;77.09;93951.44;5066032;28;20040;-80
2021/06/08 02:15:58;;;;;;;20.88;15.90;;;;;;;14.24;77.03;93946.41;5107483;28;20040;-81
2021/06/08 02:18:25;;;;;;;25.13;17.45;;;;;;;14.27;76.92;93951.13;5108222;28;20035;-81
2021/06/08 02:20:52;;;;;;;28.88;18.92;;;;;;;14.35;77.10;93944.06;5102980;28;20043;-81
2021/06/08 02:23:21;;;;;;;31.35;21.15;;;;;;;14.38;76.90;93951.44;5105619;28;20020;-82
2021/06/08 02:25:50;;;;;;;29.67;19.02;;;;;;;14.42;76.93;93945.06;5108703;28;20066;-82
2021/06/08 02:28:16;;;;;;;25.77;18.63;;;;;;;14.44;76.95;93952.78;5107735;28;20119;-82
2021/06/08 02:30:45;;;;;;;23.10;17.50;;;;;;;14.43;76.94;93951.22;5109199;28;20032;-82
2021/06/08 02:33:12;;;;;;;23.73;16.90;;;;;;;14.42;76.70;93949.66;5098295;28;20486;-82
2021/06/08 02:35:39;;;;;;;20.40;15.20;;;;;;;14.42;76.37;93955.03;5104740;28;20105;-82
2021/06/08 02:38:05;;;;;;;24.83;17.27;;;;;;;14.41;76.18;93950.75;5093539;28;20031;-83
2021/06/08 02:40:31;;;;;;;25.00;18.33;;;;;;;14.45;75.99;93962.41;5091493;28;20039;-83
2021/06/08 02:42:59;;;;;;;31.92;20.17;;;;;;;14.49;76.05;93959.81;5101171;28;20122;-82
2021/06/08 02:45:24;;;;;;;27.85;19.70;;;;;;;14.50;76.06;93967.53;5098075;28;20464;-83
2021/06/08 02:47:51;;;;;;;30.92;20.20;;;;;;;14.48;76.06;93964.41;5111378;28;20019;-81
2021/06/08 02:50:18;;;;;;;30.17;20.08;;;;;;;14.55;75.80;93959.28;5111949;28;20035;-81
2021/06/08 02:52:45;;;;;;;31.45;20.77;;;;;;;14.56;75.54;93966.22;5104044;28;20019;-81
2021/06/08 02:55:12;;;;;;;32.00;19.60;;;;;;;14.57;75.49;93962.44;5098266;28;20024;-82
2021/06/08 02:57:38;;;;;;;31.45;19.20;;;;;;;14.56;75.50;93960.09;5092453;28;20451;-82
2021/06/08 03:00:07;;;;;;;29.50;20.58;;;;;;;14.56;75.73;93963.56;5109416;28;20031;-82
2021/06/08 03:02:35;;;;;;;30.95;20.45;;;;;;;14.49;75.26;93966.00;5096438;28;20106;-82
2021/06/08 03:05:03;;;;;;;27.98;18.48;;;;;;;14.50;75.21;93967.53;5090939;28;20089;-82
2021/06/08 03:07:29;;;;;;;24.05;18.05;;;;;;;14.46;74.75;93958.59;5105694;28;20471;-82
2021/06/08 03:10:16;;;;;;;31.40;19.08;;;;;;;14.39;74.86;93971.78;5110870;28;20108;-81
2021/06/08 03:12:56;;;;;;;30.20;18.48;;;;;;;14.34;74.85;93969.31;5106406;28;20020;-82
2021/06/08 03:15:36;;;;;;;25.42;17.90;;;;;;;14.32;74.92;93964.28;5089744;28;20107;-82
2021/06/08 03:18:06;;;;;;;27.73;18.38;;;;;;;14.31;74.72;93964.63;5110691;28;20023;-83
2021/06/08 03:20:45;;;;;;;25.75;18.25;;;;;;;14.32;74.67;93974.22;5106896;28;20028;-82
2021/06/08 03:23:13;;;;;;;26.27;17.42;;;;;;;14.29;74.49;93966.84;5091766;28;20020;-82
2021/06/08 03:25:40;;;;;;;23.60;16.88;;;;;;;14.28;74.00;93973.34;5099960;28;20042;-81
2021/06/08 03:28:07;;;;;;;24.60;16.17;;;;;;;14.28;74.24;93963.38;5103449;28;20026;-82
2021/06/08 03:30:33;;;;;;;23.50;15.75;;;;;;;14.25;73.96;93967.53;5111074;28;20034;-82
2021/06/08 03:32:59;;;;;;;24.50;16.35;;;;;;;14.25;73.95;93978.25;5093371;28;20020;-81
2021/06/08 03:35:28;;;;;;;19.73;14.52;;;;;;;14.24;73.81;93976.66;5101315;28;20035;-82
2021/06/08 03:37:55;;;;;;;25.15;16.60;;;;;;;14.21;73.74;93976.56;5111895;28;20031;-83
2021/06/08 03:40:22;;;;;;;22.55;16.00;;;;;;;14.15;73.96;93980.59;5108962;28;20118;-81
2021/06/08 03:42:50;;;;;;;22.98;15.65;;;;;;;14.11;74.34;93985.03;5095009;28;20085;-82
2021/06/08 03:45:17;;;;;;;24.00;18.85;;;;;;;14.01;74.76;93978.19;5108829;28;20422;-81
2021/06/08 03:47:44;;;;;;;30.13;16.30;;;;;;;13.96;75.26;93984.56;5110598;28;20031;-82
2021/06/08 03:50:12;;;;;;;22.33;15.23;;;;;;;13.98;75.43;93992.25;5111636;28;20035;-83
2021/06/08 03:52:38;;;;;;;32.72;18.42;;;;;;;13.91;75.44;93995.47;5098801;28;20373;-83
2021/06/08 03:55:04;;;;;;;34.65;19.15;;;;;;;13.93;75.53;94003.19;5097124;28;20039;-82
2021/06/08 03:57:33;;;;;;;23.80;17.15;;;;;;;13.95;75.56;94001.75;5108851;27;20028;-82
2021/06/08 04:00:00;;;;;;;22.23;15.10;;;;;;;13.98;75.67;93998.41;5100452;28;20117;-82
2021/06/08 04:02:26;;;;;;;27.60;16.27;;;;;;;14.02;75.81;94006.56;5109793;28;20053;-82
2021/06/08 04:04:51;;;;;;;26.27;17.90;;;;;;;13.98;75.82;94011.00;5111591;28;20023;-82
2021/06/08 04:07:19;;;;;;;26.83;17.65;;;;;;;14.08;75.79;94010.59;5102143;28;20563;-83
2021/06/08 04:09:49;;;;;;;27.45;18.65;;;;;;;14.14;75.48;94003.91;5090658;28;20390;-83
2021/06/08 04:12:19;;;;;;;26.25;19.10;;;;;;;14.16;75.35;94008.94;5104120;28;20108;-83
2021/06/08 04:14:45;;;;;;;28.90;18.00;;;;;;;14.15;75.19;94004.72;5092704;28;20227;-82
2021/06/08 04:17:26;;;;;;;25.40;17.92;;;;;;;14.14;75.05;94008.47;5077253;28;20493;-82
2021/06/08 04:19:52;;;;;;;31.13;18.35;;;;;;;14.16;74.80;94003.56;5098836;28;20118;-83
2021/06/08 04:22:31;;;;;;;25.73;17.88;;;;;;;14.07;74.79;94001.00;5098039;28;20036;-84
2021/06/08 04:24:57;;;;;;;32.65;19.52;;;;;;;14.07;75.39;94003.69;5106987;28;20024;-83
2021/06/08 04:27:24;;;;;;;36.03;21.65;;;;;;;14.02;75.61;94004.69;5108385;28;20016;-82
2021/06/08 04:29:50;;;;;;;35.10;20.90;;;;;;;14.04;75.95;94007.00;5089560;28;20111;-83
2021/06/08 04:32:17;;;;;;;34.38;20.45;;;;;;;14.07;75.91;94002.91;5090516;28;20027;-82
2021/06/08 04:34:50;;;;;;;33.63;20.95;;;;;;;14.05;75.28;94012.03;5090411;28;20399;-82
2021/06/08 04:37:15;;;;;;;36.30;21.00;;;;;;;14.10;75.74;94016.41;5096887;28;20107;-82
2021/06/08 04:39:41;;;;;;;34.38;21.67;;;;;;;14.12;75.78;94014.16;5101330;28;20474;-82
2021/06/08 04:42:09;;;;;;;37.08;22.15;;;;;;;14.12;75.61;94016.06;5090790;28;20064;-82
2021/06/08 04:44:35;;;;;;;37.03;21.42;;;;;;;14.12;75.75;94011.50;5090298;28;20177;-79
2021/06/08 04:47:00;;;;;;;37.58;22.23;;;;;;;14.18;75.71;94014.75;5091249;28;20460;-82
2021/06/08 04:49:26;;;;;;;35.65;21.50;;;;;;;14.20;75.42;94018.66;5109168;28;20024;-82
2021/06/08 04:51:51;;;;;;;34.95;21.30;;;;;;;14.19;75.43;94022.47;5124188;27;20135;-82
2021/06/08 04:54:24;;;;;;;39.58;21.95;;;;;;;14.25;75.18;94020.38;5093474;28;20527;-82
2021/06/08 04:56:50;;;;;;;40.40;22.55;;;;;;;14.26;75.45;94021.91;5094053;28;20028;-81
2021/06/08 04:59:25;;;;;;;53.60;24.00;;;;;;;14.36;75.18;94026.06;5104250;28;20100;-81
2021/06/08 05:01:51;;;;;;;51.40;23.00;;;;;;;14.37;74.99;94022.25;5107278;28;20106;-81
2021/06/08 05:04:21;;;;;;;37.92;21.52;;;;;;;14.31;74.44;94021.72;5090079;28;20104;-81
2021/06/08 05:06:57;;;;;;;36.65;22.92;;;;;;;14.41;75.06;94017.81;5096861;28;20027;-81
2021/06/08 05:09:27;;;;;;;34.35;22.00;;;;;;;14.46;75.54;94017.59;5088937;28;20109;-81
2021/06/08 05:11:58;;;;;;;37.08;21.20;;;;;;;14.60;75.38;94028.03;5091342;28;20071;-81
2021/06/08 05:14:25;;;;;;;44.08;22.95;;;;;;;14.75;75.22;94027.38;5104969;28;20034;-82
2021/06/08 05:16:51;;;;;;;34.28;21.30;;;;;;;14.89;74.26;94021.69;5100074;28;20036;-81
2021/06/08 05:19:20;;;;;;;34.42;19.73;;;;;;;14.92;73.39;94025.59;5090443;28;20499;-81
2021/06/08 05:21:46;;;;;;;37.45;21.40;;;;;;;14.93;73.76;94033.31;5100395;28;20028;-81
2021/06/08 05:24:13;;;;;;;42.75;24.27;;;;;;;15.00;74.05;94040.78;5110275;28;20028;-82
2021/06/08 05:26:42;;;;;;;42.78;23.52;;;;;;;15.01;74.40;94039.69;5102802;28;20225;-82
2021/06/08 05:29:08;;;;;;;37.60;22.83;;;;;;;15.11;73.87;94035.78;5099696;28;20102;-82
2021/06/08 05:31:33;;;;;;;34.50;22.67;;;;;;;15.19;72.91;94040.25;5093525;28;20119;-81
2021/06/08 05:34:00;;;;;;;33.22;22.10;;;;;;;15.19;72.48;94034.88;5108221;28;20023;-80
2021/06/08 05:36:34;;;;;;;33.10;22.52;;;;;;;15.24;72.55;94043.47;5105948;28;20080;-81
2021/06/08 05:38:59;;;;;;;39.40;25.10;;;;;;;15.35;72.22;94037.66;5095241;28;20123;-79
2021/06/08 05:41:27;;;;;;;31.55;23.10;;;;;;;15.49;72.25;94042.63;5106436;28;20026;-81
2021/06/08 05:43:52;;;;;;;40.05;25.88;;;;;;;15.47;71.31;94039.50;5100441;28;20027;-81
2021/06/08 05:46:18;;;;;;;42.47;24.83;;;;;;;15.53;72.41;94033.56;5113677;27;20034;-81
2021/06/08 05:48:43;;;;;;;42.97;24.70;;;;;;;15.71;72.33;94035.97;5102719;28;20564;-81
2021/06/08 05:51:10;;;;;;;37.22;24.73;;;;;;;15.90;72.12;94038.09;5096549;28;20483;-81
2021/06/08 05:53:41;;;;;;;36.80;24.23;;;;;;;16.03;71.55;94039.59;5099259;28;20046;-81
2021/06/08 05:56:08;;;;;;;36.13;24.05;;;;;;;16.21;70.91;94035.47;5113505;28;22083;-80
2021/06/08 05:58:35;;;;;;;34.05;23.65;;;;;;;16.29;69.90;94031.06;5105209;28;20035;-82
2021/06/08 06:01:02;;;;;;;40.88;25.73;;;;;;;16.36;69.62;94025.09;5113506;28;20023;-79
2021/06/08 06:03:28;;;;;;;45.35;23.83;;;;;;;16.25;69.25;94030.97;5102646;28;20402;-77
2021/06/08 06:05:57;;;;;;;39.33;24.40;;;;;;;16.30;69.49;94032.63;5097933;28;20080;-78
2021/06/08 06:08:27;;;;;;;38.70;24.25;;;;;;;16.41;69.97;94032.91;5116178;28;20102;-78
2021/06/08 06:10:53;;;;;;;34.80;23.50;;;;;;;16.46;70.26;94035.34;5104142;28;20039;-77
2021/06/08 06:13:26;;;;;;;45.05;23.85;;;;;;;16.59;70.25;94033.38;5105192;28;20027;-76
2021/06/08 06:15:52;;;;;;;46.83;24.33;;;;;;;16.75;69.43;94036.03;5101365;28;20494;-76
2021/06/08 06:18:19;;;;;;;34.50;24.45;;;;;;;16.88;68.85;94032.19;5105968;28;20027;-75
2021/06/08 06:20:47;;;;;;;35.53;23.40;;;;;;;16.80;68.63;94033.88;5096691;28;20045;-75
2021/06/08 06:23:17;;;;;;;31.80;22.70;;;;;;;16.84;68.67;94042.06;5108822;28;20028;-82
2021/06/08 06:25:45;;;;;;;29.70;21.60;;;;;;;16.86;68.46;94037.13;5108682;28;20030;-79
2021/06/08 06:28:14;;;;;;;26.40;19.48;;;;;;;16.93;67.36;94037.28;5107796;28;20032;-85
2021/06/08 06:30:40;;;;;;;28.48;20.13;;;;;;;16.93;67.87;94039.19;5113365;28;20029;-83
2021/06/08 06:33:06;;;;;;;31.85;19.35;;;;;;;16.95;66.81;94035.03;5099213;28;20549;-80
2021/06/08 06:35:33;;;;;;;27.65;19.20;;;;;;;16.97;66.72;94032.00;5093167;28;20028;-80
2021/06/08 06:37:59;;;;;;;33.85;20.58;;;;;;;17.00;66.75;94028.63;5105319;28;20020;-82
2021/06/08 06:40:28;;;;;;;26.13;19.65;;;;;;;17.03;67.61;94031.38;5097602;28;20023;-81
2021/06/08 06:43:02;;;;;;;31.70;18.92;;;;;;;17.03;67.37;94033.28;5103967;28;20106;-81
2021/06/08 06:45:28;;;;;;;26.55;17.40;;;;;;;17.13;66.66;94023.91;5104122;28;20176;-77
2021/06/08 06:48:01;;;;;;;28.45;17.42;;;;;;;17.19;66.29;94022.50;5105940;28;20475;-80
2021/06/08 06:50:28;;;;;;;25.33;17.55;;;;;;;17.37;66.76;94012.88;5091747;28;20077;-80
2021/06/08 06:52:57;;;;;;;28.98;18.83;;;;;;;17.62;67.00;94026.09;5105407;28;20024;-81
2021/06/08 06:55:27;;;;;;;29.02;17.25;;;;;;;17.80;65.02;94018.41;5106793;28;20122;-79
2021/06/08 06:57:54;;;;;;;28.33;18.60;;;;;;;17.89;65.14;94023.59;5104684;28;20031;-81
2021/06/08 07:00:22;;;;;;;30.42;18.63;;;;;;;17.92;64.44;94012.13;5105094;27;20105;-81
2021/06/08 07:02:49;;;;;;;24.45;17.83;;;;;;;17.95;64.75;94019.47;5107322;28;20031;-82
2021/06/08 07:05:17;;;;;;;22.63;16.80;;;;;;;17.87;63.88;93996.22;5108611;28;20347;-82
2021/06/08 07:07:45;;;;;;;27.10;17.65;;;;;;;17.91;64.27;94018.63;5105919;28;20059;-82
2021/06/08 07:10:13;;;;;;;22.15;16.67;;;;;;;17.73;64.96;94007.47;5092399;28;20495;-82
2021/06/08 07:12:40;;;;;;;23.25;15.77;;;;;;;17.79;64.96;94003.38;5099871;28;20027;-82
2021/06/08 07:15:07;;;;;;;27.38;16.23;;;;;;;17.89;65.07;94002.03;5111841;28;20030;-82
2021/06/08 07:17:33;;;;;;;20.80;15.57;;;;;;;17.89;64.63;93993.94;5105291;28;20424;-82
2021/06/08 07:20:00;;;;;;;26.48;16.65;;;;;;;17.87;64.88;94002.41;5106447;28;20032;-82
2021/06/08 07:22:26;;;;;;;21.08;16.42;;;;;;;17.81;65.54;93998.41;5096832;28;20036;-78
2021/06/08 07:24:52;;;;;;;28.23;17.70;;;;;;;17.80;65.77;94000.28;5097799;28;20054;-80
2021/06/08 07:27:18;;;;;;;23.23;16.13;;;;;;;17.86;65.64;93998.13;5093133;28;20115;-80
2021/06/08 07:29:44;;;;;;;27.13;18.73;;;;;;;17.89;65.54;93996.63;5094335;28;20055;-80
2021/06/08 07:32:37;;;;;;;23.13;15.52;;;;;;;17.99;65.88;93998.75;5093454;28;20034;-84
2021/06/08 07:35:32;;;;;;;30.67;15.20;;;;;;;17.93;63.98;94000.97;5106094;28;20114;-84
2021/06/08 07:38:06;;;;;;;21.67;14.30;;;;;;;18.00;63.26;93998.41;5100154;28;20039;-84
2021/06/08 07:40:37;;;;;;;20.55;12.27;;;;;;;18.15;62.34;94004.84;5106754;28;20036;-81
2021/06/08 07:43:05;;;;;;;24.02;15.38;;;;;;;18.23;64.19;94003.84;5106383;28;20057;-81
2021/06/08 07:45:36;;;;;;;23.48;13.90;;;;;;;18.44;64.26;93997.28;5104013;28;20038;-85
2021/06/08 07:48:05;;;;;;;21.30;14.38;;;;;;;18.48;62.76;93998.13;5095964;28;20089;-81
2021/06/08 07:50:36;;;;;;;16.88;12.85;;;;;;;18.50;62.53;93993.16;5089686;28;20462;-84
2021/06/08 07:53:03;;;;;;;19.27;12.45;;;;;;;18.63;61.74;93991.81;5105709;28;20034;-81
2021/06/08 07:55:30;;;;;;;20.25;11.05;;;;;;;18.74;61.74;93994.66;5110667;28;20474;-85
2021/06/08 07:57:56;;;;;;;15.07;10.05;;;;;;;18.91;61.05;93998.84;5101996;28;20051;-83
2021/06/08 08:00:21;;;;;;;13.43;8.40;;;;;;;19.06;59.99;93999.84;5090019;28;20054;-83
2021/06/08 08:02:50;;;;;;;9.27;7.10;;;;;;;19.16;58.40;94003.84;5095523;28;20040;-85
2021/06/08 08:05:17;;;;;;;10.80;6.55;;;;;;;19.22;56.67;93999.69;5097120;28;20439;-84
2021/06/08 08:07:44;;;;;;;13.27;6.00;;;;;;;19.34;55.09;94004.88;5101074;28;20380;-84
2021/06/08 08:10:10;;;;;;;9.20;6.18;;;;;;;19.30;54.27;94001.34;5100760;28;20056;-87
2021/06/08 08:12:38;;;;;;;10.63;3.85;;;;;;;19.37;52.85;94008.78;5106642;28;20102;-85
2021/06/08 08:15:05;;;;;;;4.05;3.35;;;;;;;19.41;50.31;94004.97;5100030;28;20429;-87
2021/06/08 08:17:31;;;;;;;10.13;4.10;;;;;;;19.34;51.59;94004.88;5102010;28;20035;-83
2021/06/08 08:19:58;;;;;;;7.75;3.30;;;;;;;19.38;51.11;93997.59;5100228;28;20022;-87
2021/06/08 08:22:26;;;;;;;7.13;2.53;;;;;;;19.44;48.25;94006.94;5104559;28;20023;-84
2021/06/08 08:24:51;;;;;;;6.15;3.50;;;;;;;19.53;48.55;94000.50;5109230;28;20030;-82
2021/06/08 08:27:17;;;;;;;5.95;4.32;;;;;;;19.41;49.50;94007.66;5094357;28;20016;-83
2021/06/08 08:29:45;;;;;;;7.25;5.00;;;;;;;19.34;51.00;94010.28;5091664;28;20036;-85
2021/06/08 08:32:12;;;;;;;14.10;4.80;;;;;;;19.33;51.76;93997.91;5088820;28;20057;-81
2021/06/08 08:34:39;;;;;;;8.93;5.00;;;;;;;19.46;52.10;93995.78;5098799;28;20052;-82
2021/06/08 08:37:05;;;;;;;10.07;4.85;;;;;;;19.63;51.93;93999.84;5091825;28;20465;-84
2021/06/08 08:39:31;;;;;;;5.63;4.35;;;;;;;19.70;52.89;93989.13;5099354;28;20054;-83
2021/06/08 08:41:56;;;;;;;9.25;5.63;;;;;;;19.64;53.78;93991.38;5101764;28;20534;-82
2021/06/08 08:44:24;;;;;;;10.32;5.75;;;;;;;19.75;52.68;93985.34;5110347;28;20482;-86
2021/06/08 08:46:50;;;;;;;6.43;4.85;;;;;;;19.75;51.35;93979.94;5103662;28;20414;-84
2021/06/08 08:49:15;;;;;;;10.80;5.20;;;;;;;19.79;53.24;93984.25;5090080;28;20024;-88
2021/06/08 08:51:42;;;;;;;11.43;5.43;;;;;;;19.94;51.89;93977.06;5099734;28;20020;-82
2021/06/08 08:54:11;;;;;;;8.27;5.93;;;;;;;20.06;51.37;93984.16;5100028;28;20032;-88
2021/06/08 08:56:38;;;;;;;8.00;5.18;;;;;;;20.11;51.95;93975.72;5096051;28;20474;-84
2021/06/08 08:59:06;;;;;;;7.07;5.05;;;;;;;20.34;51.77;93974.78;5092511;28;20034;-87
2021/06/08 09:01:33;;;;;;;8.63;5.47;;;;;;;20.49;51.26;93976.47;5110137;28;20031;-85
2021/06/08 09:04:00;;;;;;;9.85;5.40;;;;;;;20.50;50.57;93974.56;5090175;28;20044;-83
2021/06/08 09:06:26;;;;;;;6.82;4.82;;;;;;;20.67;50.49;93973.16;5103747;28;20122;-73
2021/06/08 09:08:51;;;;;;;8.70;4.30;;;;;;;20.80;49.56;93964.38;5106426;28;20519;-75
2021/06/08 09:11:18;;;;;;;10.18;4.30;;;;;;;20.99;47.89;93963.34;5104183;28;20127;-75
2021/06/08 09:13:44;;;;;;;6.03;4.45;;;;;;;21.07;47.47;93963.41;5104285;28;20455;-75
2021/06/08 09:16:11;;;;;;;5.07;3.92;;;;;;;21.16;47.03;93955.72;5099970;28;20035;-77
2021/06/08 09:18:37;;;;;;;12.65;4.50;;;;;;;21.23;46.48;93953.06;5092780;28;20099;-80
2021/06/08 09:21:18;;;;;;;5.03;3.78;;;;;;;21.25;46.46;93950.75;5092250;28;20415;-81
2021/06/08 09:23:44;;;;;;;10.73;4.10;;;;;;;21.43;46.28;93943.53;5099992;28;20039;-82
2021/06/08 09:26:10;;;;;;;5.03;4.03;;;;;;;21.43;44.83;93943.53;5103675;28;20027;-80
2021/06/08 09:28:39;;;;;;;7.28;3.47;;;;;;;21.43;42.81;93934.59;5094153;28;20071;-80
2021/06/08 09:31:21;;;;;;;6.10;3.85;;;;;;;21.46;41.75;93936.56;5096827;28;20043;-80
2021/06/08 09:33:55;;;;;;;;;;;;;;;21.37;43.18;93926.03;5098805;28;20019;-79
2021/06/08 09:36:29;;;;;;;9.57;3.58;;;;;;;21.34;44.23;93928.72;5103378;28;20363;-79
2021/06/08 09:38:56;;;;;;;7.90;4.20;;;;;;;21.39;44.92;93931.06;5104919;28;20379;-79
2021/06/08 09:41:34;;;;;;;9.88;4.43;;;;;;;21.39;44.05;93931.06;5102850;28;20428;-79
2021/06/08 09:43:59;;;;;;;7.57;5.10;;;;;;;21.33;44.40;93925.25;5103853;28;20034;-79
2021/06/08 09:46:45;;;;;;;10.45;5.20;;;;;;;21.42;45.77;93920.25;5100367;28;20032;-77
2021/06/08 09:49:17;;;;;;;15.88;4.93;;;;;;;21.63;46.38;93913.38;5104488;28;20039;-78
2021/06/08 09:51:51;;;;;;;10.10;5.00;;;;;;;21.63;44.83;93910.66;5093373;28;20031;-77
2021/06/08 09:54:30;;;;;;;8.63;4.63;;;;;;;21.60;44.40;93900.59;5095138;28;20114;-77
2021/06/08 09:57:12;;;;;;;7.13;5.20;;;;;;;21.76;45.06;93902.97;5105901;28;20020;-77
2021/06/08 09:59:39;;;;;;;5.97;4.30;;;;;;;21.96;45.87;93904.19;5100175;28;20038;-77
2021/06/08 10:02:21;;;;;;;9.00;4.55;;;;;;;22.17;45.78;93902.69;5099220;28;20036;-78
2021/06/08 10:04:46;;;;;;;12.80;4.93;;;;;;;22.48;45.58;93895.75;5108932;28;20023;-78
2021/06/08 10:07:25;;;;;;;11.57;4.93;;;;;;;22.70;43.00;93906.63;5098710;28;20415;-77
2021/06/08 10:10:08;;;;;;;7.28;4.70;;;;;;;22.99;42.06;93889.09;5095921;28;20099;-78
2021/06/08 10:12:35;;;;;;;7.28;4.68;;;;;;;23.09;42.41;93892.22;5104319;28;20492;-78
2021/06/08 10:15:07;;;;;;;8.15;5.15;;;;;;;23.24;42.12;93885.56;5085745;28;20130;-78
2021/06/08 10:17:32;;;;;;;9.82;4.22;;;;;;;23.50;42.75;93888.97;5089623;28;20066;-79
2021/06/08 10:20:25;;;;;;;13.38;5.40;;;;;;;23.62;39.46;93889.31;5099505;28;20040;-78
2021/06/08 10:22:51;;;;;;;14.32;4.70;;;;;;;23.62;39.38;93885.81;5086864;28;20036;-77
2021/06/08 10:25:17;;;;;;;11.50;4.30;;;;;;;23.66;39.79;93888.53;5103221;28;20051;-73
2021/06/08 10:27:42;;;;;;;7.95;4.22;;;;;;;23.80;40.31;93891.97;5104267;28;20023;-72
2021/06/08 10:30:10;;;;;;;5.88;4.72;;;;;;;24.09;40.37;93893.78;5104835;28;20072;-72
2021/06/08 10:32:37;;;;;;;10.30;4.47;;;;;;;24.18;38.34;93900.34;5104757;28;20471;-73
2021/06/08 10:35:06;;;;;;;13.98;4.93;;;;;;;24.33;37.06;93890.09;5101055;28;20085;-74
2021/06/08 10:37:34;;;;;;;10.10;4.50;;;;;;;24.51;36.47;93898.19;5099453;28;20024;-73
2021/06/08 10:40:00;;;;;;;12.43;4.75;;;;;;;24.50;35.52;93884.97;5110125;28;20031;-74
2021/06/08 10:42:27;;;;;;;4.78;3.83;;;;;;;24.60;35.55;93884.09;5094133;28;20395;-74
2021/06/08 10:45:09;;;;;;;6.65;3.85;;;;;;;24.77;37.01;93877.72;5111841;28;20025;-73
2021/06/08 10:47:54;;;;;;;7.35;4.18;;;;;;;25.05;35.38;93881.34;5100956;28;20039;-72
2021/06/08 10:50:25;;;;;;;9.65;3.80;;;;;;;25.16;33.73;93870.34;5099063;28;20050;-73
2021/06/08 10:52:55;;;;;;;5.35;4.00;;;;;;;25.40;35.61;93871.25;5106936;28;20440;-73
2021/06/08 10:55:25;;;;;;;7.28;4.03;;;;;;;25.68;35.37;93856.50;5102950;28;20032;-74
2021/06/08 10:57:51;;;;;;;7.95;4.43;;;;;;;25.95;34.65;93853.84;5108679;28;20126;-73
2021/06/08 11:00:41;;;;;;;6.78;4.05;;;;;;;26.15;32.50;93855.88;5099671;28;20130;-73
2021/06/08 11:03:10;;;;;;;10.23;4.45;;;;;;;25.54;33.88;93857.44;5098903;28;20502;-73
2021/06/08 11:05:57;;;;;;;7.07;4.65;;;;;;;25.24;35.60;93850.03;5092092;28;20027;-73
2021/06/08 11:09:00;;;;;;;5.70;4.25;;;;;;;24.69;34.60;93862.63;5104154;28;20076;-73
2021/06/08 11:11:50;;;;;;;8.35;4.72;;;;;;;24.49;33.95;93889.59;5098129;28;20442;-73
2021/06/08 11:14:31;;;;;;;7.22;3.40;;;;;;;23.16;40.97;93892.97;5101961;28;20433;-73
2021/06/08 11:17:20;;;;;;;8.65;3.17;;;;;;;22.76;43.27;93894.97;5097728;28;20122;-74
2021/06/08 11:19:52;;;;;;;5.07;2.90;;;;;;;22.06;44.98;93899.91;5102072;28;20367;-73
2021/06/08 11:22:40;;;;;;;7.78;3.65;;;;;;;21.65;47.53;93902.91;5102205;28;20028;-74
2021/06/08 11:25:26;;;;;;;9.27;3.10;;;;;;;21.56;48.18;93902.50;5095273;28;20036;-73
2021/06/08 11:27:56;;;;;;;13.32;3.45;;;;;;;21.16;48.50;93907.72;5094990;28;20097;-73
2021/06/08 11:30:24;;;;;;;6.85;3.50;;;;;;;21.10;48.34;93911.16;5099687;28;20077;-73
2021/06/08 11:32:50;;;;;;;5.03;3.05;;;;;;;20.99;48.57;93917.28;5100011;28;20024;-73
2021/06/08 11:35:42;;;;;;;4.57;3.28;;;;;;;20.91;49.34;93906.81;5106749;28;20030;-73